createdAt,value
2019-02-28T00:01:35.678Z,4.08
2019-02-28T00:04:07.029Z,4.14
2019-02-28T00:06:37.978Z,4.14
2019-02-28T00:09:11.169Z,4.12
2019-02-28T00:11:42.209Z,4.16
2019-02-28T00:14:13.210Z,4.12
2019-02-28T00:16:44.082Z,4.04
2019-02-28T00:19:14.977Z,4.02
2019-02-28T00:21:45.738Z,3.94
2019-02-28T00:24:16.835Z,3.95
2019-02-28T00:26:48.012Z,3.93
2019-02-28T00:29:19.958Z,3.90
2019-02-28T00:31:50.848Z,3.94
2019-02-28T00:34:21.801Z,3.89
2019-02-28T00:36:53.421Z,3.87
2019-02-28T00:39:25.191Z,3.91
2019-02-28T00:41:56.034Z,3.92
2019-02-28T00:44:30.413Z,3.88
2019-02-28T00:46:59.326Z,3.85
2019-02-28T00:49:30.218Z,3.80
2019-02-28T00:52:02.198Z,3.80
2019-02-28T00:54:33.440Z,3.71
2019-02-28T00:57:04.321Z,3.67
2019-02-28T00:59:35.305Z,3.65
2019-02-28T01:02:06.187Z,3.48
2019-02-28T01:04:37.074Z,3.47
2019-02-28T01:07:08.065Z,3.43
2019-02-28T01:09:39.072Z,3.47
2019-02-28T01:12:09.958Z,3.43
2019-02-28T01:14:40.981Z,3.45
2019-02-28T01:17:11.737Z,3.38
2019-02-28T01:19:42.610Z,3.31
2019-02-28T01:22:13.510Z,3.12
2019-02-28T01:24:44.518Z,3.12
2019-02-28T01:27:17.395Z,3.18
2019-02-28T01:29:47.876Z,3.22
2019-02-28T01:32:18.880Z,3.27
2019-02-28T01:34:49.790Z,3.21
2019-02-28T01:37:21.173Z,3.19
2019-02-28T01:39:53.165Z,3.27
2019-02-28T01:42:23.971Z,3.29
2019-02-28T01:44:54.957Z,3.28
2019-02-28T01:47:25.766Z,3.25
2019-02-28T01:49:57.710Z,3.28
2019-02-28T01:52:29.421Z,3.29
2019-02-28T01:55:00.317Z,3.24
2019-02-28T01:57:31.188Z,3.11
2019-02-28T02:00:02.083Z,3.05
2019-02-28T02:02:33.462Z,2.98
2019-02-28T02:05:04.567Z,2.92
2019-02-28T02:07:35.785Z,2.58
2019-02-28T02:10:11.846Z,2.73
2019-02-28T02:12:42.649Z,2.74
2019-02-28T02:15:16.910Z,2.65
2019-02-28T02:17:46.082Z,2.79
2019-02-28T02:20:16.976Z,2.86
2019-02-28T02:22:47.960Z,2.89
2019-02-28T02:25:18.755Z,2.68
2019-02-28T02:27:52.778Z,2.70
2019-02-28T02:30:23.307Z,2.77
2019-02-28T02:32:54.160Z,2.91
2019-02-28T02:35:25.212Z,2.81
2019-02-28T02:37:56.051Z,2.92
2019-02-28T02:40:26.996Z,2.94
2019-02-28T02:42:57.779Z,2.96
2019-02-28T02:45:28.690Z,2.95
2019-02-28T02:47:59.455Z,3.04
2019-02-28T02:50:35.904Z,3.14
2019-02-28T02:53:05.598Z,3.19
2019-02-28T02:55:35.905Z,3.19
2019-02-28T02:58:06.781Z,3.04
2019-02-28T03:00:37.855Z,2.99
2019-02-28T03:03:08.752Z,2.89
2019-02-28T03:05:39.735Z,2.87
2019-02-28T03:08:10.530Z,2.86
2019-02-28T03:10:41.535Z,2.82
2019-02-28T03:13:12.302Z,2.73
2019-02-28T03:15:43.481Z,2.70
2019-02-28T03:18:14.304Z,2.66
2019-02-28T03:20:45.380Z,2.63
2019-02-28T03:23:16.381Z,2.54
2019-02-28T03:25:47.479Z,2.52
2019-02-28T03:28:18.361Z,2.59
2019-02-28T03:30:50.278Z,2.52
2019-02-28T03:33:27.217Z,2.48
2019-02-28T03:35:53.931Z,2.44
2019-02-28T03:38:24.769Z,2.36
2019-02-28T03:40:55.657Z,2.39
2019-02-28T03:43:26.444Z,2.46
2019-02-28T03:45:57.572Z,2.51
2019-02-28T03:48:34.645Z,2.46
2019-02-28T03:51:01.033Z,2.47
2019-02-28T03:53:31.886Z,2.48
2019-02-28T03:56:02.827Z,2.48
2019-02-28T03:58:41.707Z,2.42
2019-02-28T04:01:09.416Z,2.38
2019-02-28T04:03:39.318Z,2.24
2019-02-28T04:06:10.132Z,2.07
2019-02-28T04:08:41.016Z,2.13
2019-02-28T04:11:12.011Z,2.19
2019-02-28T04:13:42.877Z,2.21
2019-02-28T04:16:13.573Z,2.26
2019-02-28T04:18:46.622Z,2.26
2019-02-28T04:21:17.188Z,2.27
2019-02-28T04:23:47.984Z,2.31
2019-02-28T04:26:18.765Z,2.34
2019-02-28T04:28:53.248Z,2.25
2019-02-28T04:31:22.894Z,2.18
2019-02-28T04:33:53.863Z,2.11
2019-02-28T04:36:24.756Z,2.09
2019-02-28T04:38:55.705Z,2.08
2019-02-28T04:41:26.653Z,1.99
2019-02-28T04:43:57.639Z,1.96
2019-02-28T04:46:31.838Z,1.97
2019-02-28T04:49:01.030Z,2.01
2019-02-28T04:51:31.820Z,2.04
2019-02-28T04:54:02.708Z,2.04
2019-02-28T04:56:33.802Z,1.99
2019-02-28T04:59:04.794Z,1.98
2019-02-28T05:01:35.740Z,1.95
2019-02-28T05:04:06.401Z,1.90
2019-02-28T05:06:37.351Z,1.92
2019-02-28T05:09:10.758Z,2.00
2019-02-28T05:11:41.267Z,2.04
2019-02-28T05:14:12.166Z,2.10
2019-02-28T05:16:47.187Z,2.14
2019-02-28T05:19:15.990Z,2.22
2019-02-28T05:21:46.783Z,3.23
2019-02-28T05:24:17.656Z,3.56
2019-02-28T05:26:48.438Z,3.58
2019-02-28T05:29:19.278Z,3.57
2019-02-28T05:31:50.157Z,3.49
2019-02-28T05:34:21.307Z,3.49
2019-02-28T05:36:52.384Z,3.40
2019-02-28T05:39:23.138Z,3.36
2019-02-28T05:41:54.118Z,3.20
2019-02-28T05:44:25.116Z,3.12
2019-02-28T05:46:58.069Z,3.04
2019-02-28T05:49:28.674Z,2.99
2019-02-28T05:51:59.883Z,2.94
2019-02-28T05:54:30.716Z,3.29
2019-02-28T05:57:04.716Z,3.38
2019-02-28T05:59:34.139Z,3.50
2019-02-28T06:02:05.684Z,3.61
2019-02-28T06:04:37.139Z,4.10
2019-02-28T06:07:09.474Z,4.46
2019-02-28T06:09:40.451Z,4.93
2019-02-28T06:12:11.435Z,5.56
2019-02-28T06:14:42.349Z,5.99
2019-02-28T06:17:13.235Z,6.72
2019-02-28T06:19:44.362Z,6.60
2019-02-28T06:22:15.517Z,7.09
2019-02-28T06:24:46.291Z,7.30
2019-02-28T06:27:17.291Z,7.31
2019-02-28T06:29:48.274Z,7.20
2019-02-28T06:32:23.211Z,7.43
2019-02-28T06:34:51.767Z,7.48
2019-02-28T06:37:24.020Z,7.60
2019-02-28T06:39:58.645Z,7.95
2019-02-28T06:42:28.997Z,8.11
2019-02-28T06:45:02.530Z,7.92
2019-02-28T06:47:32.482Z,7.91
2019-02-28T06:50:03.044Z,7.91
2019-02-28T06:52:33.654Z,8.10
2019-02-28T06:55:04.617Z,8.41
2019-02-28T06:57:35.203Z,8.60
2019-02-28T07:00:06.651Z,8.61
2019-02-28T07:02:37.226Z,8.89
2019-02-28T07:05:08.407Z,8.98
2019-02-28T07:07:39.206Z,8.97
2019-02-28T07:10:12.691Z,8.95
2019-02-28T07:12:44.766Z,9.18
2019-02-28T07:15:16.254Z,9.21
2019-02-28T07:17:47.602Z,9.02
2019-02-28T07:20:18.746Z,9.14
2019-02-28T07:22:54.628Z,9.10
2019-02-28T07:25:23.080Z,9.34
2019-02-28T07:27:54.037Z,9.40
2019-02-28T07:30:24.930Z,9.62
2019-02-28T07:32:55.897Z,9.79
2019-02-28T07:35:32.673Z,9.61
2019-02-28T07:38:00.397Z,9.71
2019-02-28T07:40:33.211Z,9.94
2019-02-28T07:43:03.865Z,10.05
2019-02-28T07:45:34.768Z,10.19
2019-02-28T07:48:05.644Z,10.17
2019-02-28T07:50:37.447Z,10.09
2019-02-28T07:53:09.733Z,10.24
2019-02-28T07:55:40.759Z,10.28
2019-02-28T07:58:11.816Z,10.40
2019-02-28T08:00:42.840Z,10.91
2019-02-28T08:03:13.687Z,11.17
2019-02-28T08:05:44.860Z,11.23
2019-02-28T08:08:15.752Z,11.44
2019-02-28T08:10:47.929Z,11.46
2019-02-28T08:13:19.480Z,11.47
2019-02-28T08:15:53.363Z,11.40
2019-02-28T08:18:23.209Z,11.43
2019-02-28T08:20:54.101Z,11.73
2019-02-28T08:23:24.887Z,11.91
2019-02-28T08:25:55.863Z,11.86
2019-02-28T08:28:29.592Z,11.98
2019-02-28T08:31:01.629Z,11.87
2019-02-28T08:33:33.354Z,12.13
2019-02-28T08:36:08.472Z,12.28
2019-02-28T08:38:37.062Z,12.39
2019-02-28T08:41:08.060Z,12.39
2019-02-28T08:43:38.953Z,12.34
2019-02-28T08:46:12.114Z,12.33
2019-02-28T08:48:42.366Z,12.41
2019-02-28T08:51:13.352Z,12.61
2019-02-28T08:53:44.221Z,12.58
2019-02-28T08:56:15.581Z,12.81
2019-02-28T08:58:46.424Z,12.73
2019-02-28T09:01:17.502Z,12.75
2019-02-28T09:03:50.229Z,12.81
2019-02-28T09:06:22.240Z,13.08
2019-02-28T09:08:53.147Z,13.05
2019-02-28T09:11:24.063Z,13.19
2019-02-28T09:13:55.003Z,13.21
2019-02-28T09:16:25.892Z,13.39
2019-02-28T09:18:57.482Z,13.38
2019-02-28T09:21:29.200Z,13.42
2019-02-28T09:24:00.120Z,13.64
2019-02-28T09:26:31.242Z,13.68
2019-02-28T09:29:03.820Z,13.67
2019-02-28T09:31:38.655Z,13.78
2019-02-28T09:34:09.434Z,13.84
2019-02-28T09:36:40.527Z,13.79
2019-02-28T09:39:11.583Z,13.72
2019-02-28T09:41:42.417Z,13.78
2019-02-28T09:44:13.289Z,13.99
2019-02-28T09:46:44.187Z,14.26
2019-02-28T09:49:15.163Z,14.25
2019-02-28T09:51:46.048Z,14.38
2019-02-28T09:54:16.860Z,14.58
2019-02-28T09:56:47.740Z,14.68
2019-02-28T09:59:18.610Z,14.73
2019-02-28T10:01:49.411Z,14.83
2019-02-28T10:04:21.003Z,14.79
2019-02-28T10:06:52.267Z,15.15
2019-02-28T10:09:24.220Z,14.96
2019-02-28T10:11:55.111Z,15.20
2019-02-28T10:14:28.856Z,15.17
2019-02-28T10:16:58.921Z,15.15
2019-02-28T10:19:29.915Z,15.43
2019-02-28T10:22:00.800Z,15.50
2019-02-28T10:24:32.364Z,15.48
2019-02-28T10:27:03.565Z,15.43
2019-02-28T10:29:34.608Z,15.49
2019-02-28T10:32:06.151Z,15.54
2019-02-28T10:34:38.007Z,15.58
2019-02-28T10:37:08.993Z,15.68
2019-02-28T10:39:40.316Z,15.94
2019-02-28T10:42:12.520Z,16.33
2019-02-28T10:44:43.582Z,16.47
2019-02-28T10:47:14.489Z,16.65
2019-02-28T10:49:45.491Z,16.76
2019-02-28T10:52:16.320Z,16.75
2019-02-28T10:54:48.662Z,16.82
2019-02-28T10:57:19.732Z,16.88
2019-02-28T10:59:50.608Z,16.88
2019-02-28T11:02:21.792Z,17.02
2019-02-28T11:04:52.607Z,17.18
2019-02-28T11:07:23.791Z,17.25
2019-02-28T11:09:55.560Z,17.13
2019-02-28T11:12:27.303Z,17.15
2019-02-28T11:14:58.202Z,17.19
2019-02-28T11:17:30.419Z,17.18
2019-02-28T11:20:01.886Z,17.05
2019-02-28T11:22:32.739Z,17.23
2019-02-28T11:25:03.724Z,17.15
2019-02-28T11:27:35.014Z,16.85
2019-02-28T11:30:07.394Z,16.86
2019-02-28T11:32:40.082Z,17.02
2019-02-28T11:35:12.871Z,16.96
2019-02-28T11:37:46.179Z,17.09
2019-02-28T11:40:19.028Z,17.25
2019-02-28T11:42:50.082Z,17.36
2019-02-28T11:45:25.370Z,17.42
2019-02-28T11:47:56.275Z,17.36
2019-02-28T11:50:27.238Z,17.30
2019-02-28T11:53:03.247Z,17.38
2019-02-28T11:55:30.692Z,17.51
2019-02-28T11:58:01.882Z,17.48
2019-02-28T12:00:35.831Z,17.57
2019-02-28T12:03:06.604Z,17.74
2019-02-28T12:05:37.917Z,17.82
2019-02-28T12:08:10.288Z,17.81
2019-02-28T12:10:41.319Z,17.71
2019-02-28T12:13:12.314Z,17.94
2019-02-28T12:15:43.204Z,17.94
2019-02-28T12:18:14.084Z,18.00
2019-02-28T12:20:45.983Z,17.91
2019-02-28T12:23:16.795Z,17.96
2019-02-28T12:25:47.691Z,18.14
2019-02-28T12:28:18.567Z,18.07
2019-02-28T12:30:49.558Z,18.06
2019-02-28T12:33:23.143Z,17.98
2019-02-28T12:35:54.740Z,18.29
2019-02-28T12:38:29.044Z,18.33
2019-02-28T12:40:58.871Z,18.47
2019-02-28T12:43:29.885Z,18.47
2019-02-28T12:46:00.869Z,18.30
2019-02-28T12:48:31.843Z,18.38
2019-02-28T12:51:05.319Z,18.47
2019-02-28T12:53:35.564Z,18.61
2019-02-28T12:56:06.372Z,18.55
2019-02-28T12:58:39.182Z,18.51
2019-02-28T13:01:10.244Z,18.62
2019-02-28T13:03:41.097Z,18.62
2019-02-28T13:06:12.047Z,18.75
2019-02-28T13:08:42.965Z,18.83
2019-02-28T13:11:14.004Z,18.71
2019-02-28T13:13:44.735Z,18.76
2019-02-28T13:16:17.437Z,18.77
2019-02-28T13:18:48.352Z,18.77
2019-02-28T13:21:19.139Z,18.82
2019-02-28T13:23:50.117Z,18.73
2019-02-28T13:26:20.904Z,18.85
2019-02-28T13:28:54.569Z,18.78
2019-02-28T13:31:25.592Z,18.73
2019-02-28T13:33:57.259Z,18.89
2019-02-28T13:36:28.136Z,18.89
2019-02-28T13:39:01.663Z,19.10
2019-02-28T13:41:34.512Z,19.22
2019-02-28T13:44:05.628Z,18.96
2019-02-28T13:46:36.399Z,19.20
2019-02-28T13:49:08.559Z,19.24
2019-02-28T13:51:42.122Z,19.14
2019-02-28T13:54:12.564Z,19.09
2019-02-28T13:56:44.362Z,18.89
2019-02-28T13:59:15.262Z,18.86
2019-02-28T14:01:46.040Z,18.97
2019-02-28T14:04:19.408Z,19.10
2019-02-28T14:06:52.449Z,18.98
2019-02-28T14:09:24.343Z,18.94
2019-02-28T14:11:55.204Z,18.82
2019-02-28T14:14:26.094Z,18.88
2019-02-28T14:16:58.324Z,18.87
2019-02-28T14:19:29.519Z,18.95
2019-02-28T14:22:00.586Z,18.96
2019-02-28T14:24:32.064Z,18.93
2019-02-28T14:27:03.004Z,19.03
2019-02-28T14:29:33.870Z,18.90
2019-02-28T14:32:07.511Z,18.85
2019-02-28T14:34:37.757Z,18.94
2019-02-28T14:37:08.596Z,18.95
2019-02-28T14:39:42.600Z,19.05
2019-02-28T14:42:13.517Z,18.94
2019-02-28T14:44:44.503Z,18.91
2019-02-28T14:47:15.513Z,18.75
2019-02-28T14:49:46.404Z,18.67
2019-02-28T14:52:17.299Z,18.66
2019-02-28T14:54:48.091Z,18.83
2019-02-28T14:57:18.866Z,18.61
2019-02-28T14:59:50.055Z,18.54
2019-02-28T15:02:20.930Z,18.41
2019-02-28T15:04:52.034Z,18.27
2019-02-28T15:07:22.822Z,18.22
2019-02-28T15:09:54.534Z,18.18
2019-02-28T15:12:25.298Z,18.19
2019-02-28T15:14:56.757Z,18.13
2019-02-28T15:17:27.707Z,17.94
2019-02-28T15:19:58.873Z,17.94
2019-02-28T15:22:29.687Z,17.97
2019-02-28T15:25:00.670Z,18.00
2019-02-28T15:27:31.561Z,18.05
2019-02-28T15:30:02.634Z,18.22
2019-02-28T15:32:33.323Z,18.11
2019-02-28T15:35:04.511Z,17.96
2019-02-28T15:37:35.522Z,18.00
2019-02-28T15:40:07.691Z,17.92
2019-02-28T15:42:39.621Z,17.81
2019-02-28T15:45:11.648Z,17.66
2019-02-28T15:47:42.740Z,17.57
2019-02-28T15:50:16.395Z,17.45
2019-02-28T15:52:48.108Z,17.35
2019-02-28T15:55:19.279Z,17.25
2019-02-28T15:57:50.094Z,17.26
2019-02-28T16:00:28.385Z,17.04
2019-02-28T16:02:59.425Z,16.98
2019-02-28T16:05:30.575Z,17.01
2019-02-28T16:08:01.517Z,16.71
2019-02-28T16:10:32.969Z,16.75
2019-02-28T16:13:05.380Z,16.68
2019-02-28T16:15:36.587Z,16.61
2019-02-28T16:18:08.757Z,16.49
2019-02-28T16:20:40.307Z,16.41
2019-02-28T16:23:11.379Z,16.27
2019-02-28T16:25:42.497Z,16.28
2019-02-28T16:28:13.511Z,16.23
2019-02-28T16:30:44.383Z,16.19
2019-02-28T16:33:15.393Z,16.13
2019-02-28T16:35:46.664Z,16.05
2019-02-28T16:38:18.832Z,16.02
2019-02-28T16:40:50.020Z,15.86
2019-02-28T16:43:21.684Z,15.83
2019-02-28T16:45:52.385Z,15.71
2019-02-28T16:48:23.351Z,15.71
2019-02-28T16:50:56.764Z,15.61
2019-02-28T16:53:26.782Z,15.61
2019-02-28T16:55:57.642Z,15.49
2019-02-28T16:58:28.624Z,15.45
2019-02-28T17:00:59.603Z,15.42
2019-02-28T17:03:30.459Z,15.26
2019-02-28T17:06:02.267Z,15.14
2019-02-28T17:08:37.281Z,14.98
2019-02-28T17:11:08.345Z,15.06
2019-02-28T17:14:00.054Z,14.93
2019-02-28T17:16:42.537Z,14.83
2019-02-28T17:19:13.495Z,14.76
2019-02-28T17:21:44.375Z,14.75
2019-02-28T17:24:15.263Z,14.79
2019-02-28T17:27:11.382Z,14.84
2019-02-28T17:29:49.486Z,14.77
2019-02-28T17:32:20.960Z,14.73
2019-02-28T17:34:51.877Z,14.67
2019-02-28T17:37:25.859Z,14.66
2019-02-28T17:39:55.487Z,14.51
2019-02-28T17:42:26.184Z,14.57
2019-02-28T17:45:16.313Z,14.46
2019-02-28T17:48:34.226Z,14.44
2019-02-28T17:51:11.303Z,14.43
2019-02-28T17:54:03.846Z,14.37
2019-02-28T17:57:20.393Z,14.30
2019-02-28T18:00:35.158Z,14.26
2019-02-28T18:03:55.453Z,14.23
2019-02-28T18:07:11.114Z,14.12
2019-02-28T18:10:24.245Z,14.04
2019-02-28T18:13:21.154Z,13.94
2019-02-28T18:16:36.470Z,13.78
2019-02-28T18:19:44.141Z,13.66
2019-02-28T18:22:38.382Z,13.65
2019-02-28T18:25:59.084Z,13.56
2019-02-28T18:29:18.974Z,13.57
2019-02-28T18:31:49.898Z,13.42
2019-02-28T18:34:26.995Z,13.28
2019-02-28T18:36:57.928Z,13.23
2019-02-28T18:39:28.903Z,13.21
2019-02-28T18:41:59.837Z,13.15
2019-02-28T18:44:30.813Z,13.07
2019-02-28T18:47:04.175Z,13.04
2019-02-28T18:49:36.355Z,13.04
2019-02-28T18:52:07.257Z,13.10
2019-02-28T18:54:39.388Z,12.87
2019-02-28T18:57:10.329Z,12.81
2019-02-28T18:59:41.213Z,12.76
2019-02-28T19:02:12.130Z,12.72
2019-02-28T19:04:43.489Z,12.77
2019-02-28T19:07:14.431Z,12.68
2019-02-28T19:09:45.411Z,12.72
2019-02-28T19:12:16.288Z,12.62
2019-02-28T19:14:47.178Z,12.68
2019-02-28T19:17:18.168Z,12.59
2019-02-28T19:19:53.774Z,12.60
2019-02-28T19:22:24.670Z,12.59
2019-02-28T19:24:55.866Z,12.56
2019-02-28T19:27:26.636Z,12.52
2019-02-28T19:29:57.725Z,12.54
2019-02-28T19:32:28.615Z,12.44
2019-02-28T19:34:59.498Z,12.43
2019-02-28T19:37:30.331Z,12.43
2019-02-28T19:40:01.234Z,12.41
2019-02-28T19:42:33.565Z,12.37
2019-02-28T19:45:04.839Z,12.40
2019-02-28T19:47:35.715Z,12.32
2019-02-28T19:50:08.731Z,12.32
2019-02-28T19:52:39.600Z,12.30
2019-02-28T19:55:12.139Z,12.21
2019-02-28T19:57:43.020Z,12.04
2019-02-28T20:00:15.558Z,11.99
2019-02-28T20:02:46.547Z,11.94
2019-02-28T20:05:18.018Z,11.95
2019-02-28T20:07:48.934Z,11.95
2019-02-28T20:10:20.409Z,11.97
2019-02-28T20:12:51.264Z,11.98
2019-02-28T20:15:24.203Z,11.89
2019-02-28T20:17:55.466Z,11.82
2019-02-28T20:20:27.447Z,11.68
2019-02-28T20:22:58.384Z,11.62
2019-02-28T20:25:29.388Z,11.54
2019-02-28T20:28:00.338Z,11.47
2019-02-28T20:30:32.031Z,11.55
2019-02-28T20:33:03.032Z,11.55
2019-02-28T20:35:33.997Z,11.60
2019-02-28T20:38:05.231Z,11.67
2019-02-28T20:40:36.134Z,11.64
2019-02-28T20:43:07.287Z,11.60
2019-02-28T20:45:38.279Z,11.65
2019-02-28T20:48:09.177Z,11.53
2019-02-28T20:50:41.498Z,11.35
2019-02-28T20:53:12.273Z,11.21
2019-02-28T20:55:43.278Z,11.13
2019-02-28T20:58:15.988Z,11.02
2019-02-28T21:00:48.064Z,10.92
2019-02-28T21:03:18.990Z,10.77
2019-02-28T21:05:50.159Z,10.77
2019-02-28T21:08:21.192Z,10.75
2019-02-28T21:10:52.065Z,10.76
2019-02-28T21:13:22.854Z,10.74
2019-02-28T21:15:53.735Z,10.73
2019-02-28T21:18:24.848Z,10.83
2019-02-28T21:20:55.739Z,10.80
2019-02-28T21:23:26.709Z,10.77
2019-02-28T21:25:57.544Z,10.75
2019-02-28T21:28:28.579Z,10.72
2019-02-28T21:30:59.638Z,10.81
2019-02-28T21:33:30.519Z,10.83
2019-02-28T21:36:01.315Z,10.75
2019-02-28T21:38:32.377Z,10.73
2019-02-28T21:41:03.291Z,10.68
2019-02-28T21:43:35.300Z,10.67
2019-02-28T21:46:06.190Z,10.65
2019-02-28T21:48:37.177Z,10.70
2019-02-28T21:51:07.967Z,10.63
2019-02-28T21:53:38.947Z,10.63
2019-02-28T21:56:09.735Z,10.66
2019-02-28T21:58:40.694Z,10.52
2019-02-28T22:01:11.498Z,10.48
2019-02-28T22:03:42.489Z,10.43
2019-02-28T22:06:13.299Z,10.34
2019-02-28T22:08:44.190Z,10.40
2019-02-28T22:11:15.050Z,10.41
2019-02-28T22:13:46.028Z,10.36
2019-02-28T22:16:16.826Z,10.35
2019-02-28T22:18:47.914Z,10.33
2019-02-28T22:21:18.717Z,10.29
2019-02-28T22:23:49.590Z,10.23
2019-02-28T22:26:20.394Z,10.23
2019-02-28T22:28:52.004Z,10.23
2019-02-28T22:31:45.606Z,10.23
2019-02-28T22:34:35.497Z,10.26
2019-02-28T22:37:06.317Z,10.33
2019-02-28T22:39:37.202Z,10.24
2019-02-28T22:42:08.102Z,10.23
2019-02-28T22:44:39.001Z,10.24
2019-02-28T22:47:09.578Z,10.19
2019-02-28T22:49:40.467Z,10.17
2019-02-28T22:52:11.355Z,10.11
2019-02-28T22:54:42.330Z,10.13
2019-02-28T22:57:13.231Z,10.22
2019-02-28T22:59:44.406Z,10.22
2019-02-28T23:02:15.194Z,10.29
2019-02-28T23:04:46.559Z,10.42
2019-02-28T23:07:17.601Z,10.40
2019-02-28T23:09:48.645Z,10.41
2019-02-28T23:12:19.569Z,10.51
2019-02-28T23:14:50.489Z,10.48
2019-02-28T23:17:21.362Z,10.49
2019-02-28T23:19:52.189Z,10.50
2019-02-28T23:22:23.187Z,10.52
2019-02-28T23:24:53.951Z,10.54
2019-02-28T23:27:24.840Z,10.40
2019-02-28T23:30:34.940Z,10.45
2019-02-28T23:33:12.918Z,10.48
2019-02-28T23:35:45.610Z,10.43
2019-02-28T23:38:16.766Z,10.50
2019-02-28T23:40:47.622Z,10.47
2019-02-28T23:43:18.509Z,10.52
2019-02-28T23:45:49.292Z,10.55
2019-02-28T23:48:20.170Z,10.58
2019-02-28T23:50:51.058Z,10.69
2019-02-28T23:53:22.063Z,10.69
2019-02-28T23:55:52.851Z,10.66
2019-02-28T23:58:24.126Z,10.67
